createdAt,value
2022-11-08T00:01:35.046Z,2.38
2022-11-08T00:04:05.288Z,2.30
2022-11-08T00:06:51.985Z,2.17
2022-11-08T00:09:37.377Z,2.33
2022-11-08T00:12:23.192Z,2.60
2022-11-08T00:14:51.103Z,2.47
2022-11-08T00:17:20.340Z,2.35
2022-11-08T00:19:48.394Z,2.20
2022-11-08T00:22:18.304Z,2.22
2022-11-08T00:24:46.651Z,2.47
2022-11-08T00:27:16.408Z,2.80
2022-11-08T00:29:44.313Z,2.50
2022-11-08T00:32:14.262Z,2.33
2022-11-08T00:34:42.219Z,2.45
2022-11-08T00:37:10.074Z,2.17
2022-11-08T00:39:39.421Z,2.20
2022-11-08T00:42:07.205Z,2.15
2022-11-08T00:44:35.334Z,2.25
2022-11-08T00:47:03.196Z,2.50
2022-11-08T00:49:31.401Z,2.58
2022-11-08T00:51:59.155Z,2.60
2022-11-08T00:54:27.067Z,2.08
2022-11-08T00:56:56.436Z,2.45
2022-11-08T00:59:24.184Z,2.30
2022-11-08T01:01:52.136Z,2.58
2022-11-08T01:04:20.615Z,2.22
2022-11-08T01:06:48.706Z,2.50
2022-11-08T01:09:16.511Z,2.30
2022-11-08T01:11:46.443Z,2.60
2022-11-08T01:14:16.202Z,2.33
2022-11-08T01:16:44.804Z,2.50
2022-11-08T01:19:12.609Z,2.25
2022-11-08T01:21:40.336Z,2.65
2022-11-08T01:24:08.488Z,2.40
2022-11-08T01:26:36.280Z,2.60
2022-11-08T01:29:04.099Z,2.20
2022-11-08T01:31:33.843Z,2.88
2022-11-08T01:34:01.877Z,2.63
2022-11-08T01:36:30.143Z,2.83
2022-11-08T01:38:58.564Z,2.58
2022-11-08T01:41:28.584Z,2.67
2022-11-08T01:43:57.759Z,3.03
2022-11-08T01:46:35.761Z,2.60
2022-11-08T01:49:16.040Z,2.58
2022-11-08T01:51:48.413Z,2.65
2022-11-08T01:54:21.832Z,3.55
2022-11-08T01:56:50.308Z,2.55
2022-11-08T01:59:19.447Z,3.65
2022-11-08T02:01:48.877Z,3.00
2022-11-08T02:04:18.009Z,3.00
2022-11-08T02:06:45.817Z,3.00
2022-11-08T02:09:17.745Z,3.20
2022-11-08T02:11:47.697Z,3.38
2022-11-08T02:14:17.225Z,2.67
2022-11-08T02:16:44.970Z,2.72
2022-11-08T02:19:31.140Z,3.08
2022-11-08T02:22:04.444Z,3.38
2022-11-08T02:24:33.645Z,2.67
2022-11-08T02:27:02.384Z,3.25
2022-11-08T02:29:33.019Z,3.08
2022-11-08T02:32:02.480Z,2.95
2022-11-08T02:34:33.491Z,2.45
2022-11-08T02:37:02.772Z,3.17
2022-11-08T02:39:32.335Z,2.92
2022-11-08T02:42:02.259Z,3.15
2022-11-08T02:44:30.219Z,2.95
2022-11-08T02:46:57.959Z,3.00
2022-11-08T02:49:25.756Z,3.25
2022-11-08T02:51:55.056Z,3.28
2022-11-08T02:54:23.094Z,2.97
2022-11-08T02:56:50.844Z,3.03
2022-11-08T02:59:19.910Z,3.17
2022-11-08T03:01:47.777Z,2.83
2022-11-08T03:04:15.908Z,2.53
2022-11-08T03:06:43.692Z,3.10
2022-11-08T03:09:12.036Z,2.80
2022-11-08T03:11:39.868Z,2.80
2022-11-08T03:14:07.675Z,3.30
2022-11-08T03:16:36.809Z,3.55
2022-11-08T03:19:04.717Z,2.60
2022-11-08T03:21:32.480Z,3.00
2022-11-08T03:24:00.262Z,3.30
2022-11-08T03:26:28.005Z,2.92
2022-11-08T03:28:56.332Z,3.55
2022-11-08T03:31:24.088Z,2.80
2022-11-08T03:33:53.183Z,3.08
2022-11-08T03:36:20.971Z,2.90
2022-11-08T03:38:48.730Z,3.00
2022-11-08T03:41:16.444Z,3.05
2022-11-08T03:43:44.196Z,2.80
2022-11-08T03:46:12.047Z,3.00
2022-11-08T03:48:39.788Z,3.00
2022-11-08T03:51:08.859Z,2.85
2022-11-08T03:53:36.654Z,3.13
2022-11-08T03:56:04.415Z,3.00
2022-11-08T03:58:32.155Z,2.67
2022-11-08T04:01:03.857Z,2.60
2022-11-08T04:03:31.649Z,2.78
2022-11-08T04:06:00.694Z,2.67
2022-11-08T04:08:30.622Z,3.00
2022-11-08T04:11:19.419Z,2.83
2022-11-08T04:14:05.150Z,2.65
2022-11-08T04:16:33.375Z,3.00
2022-11-08T04:19:19.209Z,2.53
2022-11-08T04:21:49.026Z,3.00
2022-11-08T04:24:18.432Z,2.55
2022-11-08T04:26:46.232Z,2.70
2022-11-08T04:29:14.092Z,2.85
2022-11-08T04:31:41.940Z,2.65
2022-11-08T04:34:09.921Z,2.92
2022-11-08T04:36:37.685Z,2.55
2022-11-08T04:39:05.737Z,2.60
2022-11-08T04:41:34.886Z,2.40
2022-11-08T04:44:02.785Z,2.25
2022-11-08T04:46:30.799Z,2.88
2022-11-08T04:48:59.888Z,2.70
2022-11-08T04:51:30.368Z,2.90
2022-11-08T04:53:59.872Z,2.55
2022-11-08T04:56:29.709Z,2.42
2022-11-08T04:59:00.241Z,2.35
2022-11-08T05:01:30.440Z,2.47
2022-11-08T05:03:59.271Z,2.55
2022-11-08T05:06:30.462Z,2.33
2022-11-08T05:11:28.295Z,2.65
2022-11-08T05:13:58.191Z,2.58
2022-11-08T05:16:28.037Z,2.00
2022-11-08T05:18:56.068Z,2.30
2022-11-08T05:21:41.897Z,2.22
2022-11-08T05:24:12.404Z,2.38
2022-11-08T05:26:43.057Z,2.45
2022-11-08T05:29:13.418Z,2.42
2022-11-08T05:31:41.280Z,2.08
2022-11-08T05:34:09.184Z,2.10
2022-11-08T05:36:37.014Z,2.13
2022-11-08T05:39:05.032Z,2.38
2022-11-08T05:41:32.734Z,2.58
2022-11-08T05:44:00.489Z,2.42
2022-11-08T05:46:29.575Z,2.05
2022-11-08T05:48:57.536Z,2.45
2022-11-08T05:51:25.271Z,2.22
2022-11-08T05:53:53.100Z,2.20
2022-11-08T05:56:20.866Z,2.30
2022-11-08T05:58:48.660Z,2.40
2022-11-08T06:01:18.584Z,2.55
2022-11-08T06:03:48.944Z,2.63
2022-11-08T06:06:18.815Z,2.30
2022-11-08T06:08:50.261Z,2.30
2022-11-08T06:11:21.452Z,2.60
2022-11-08T06:13:49.295Z,2.67
2022-11-08T06:16:19.276Z,2.78
2022-11-08T06:18:48.628Z,2.15
2022-11-08T06:21:19.422Z,2.65
2022-11-08T06:26:15.507Z,2.50
2022-11-08T06:31:11.108Z,2.40
2022-11-08T06:33:38.869Z,2.33
2022-11-08T06:36:09.099Z,2.65
2022-11-08T06:38:37.011Z,2.42
2022-11-08T06:41:04.795Z,2.17
2022-11-08T06:43:32.510Z,2.60
2022-11-08T06:46:02.126Z,2.35
2022-11-08T06:48:35.028Z,2.38
2022-11-08T06:51:04.358Z,2.20
2022-11-08T06:53:34.120Z,2.70
2022-11-08T06:56:01.881Z,2.20
2022-11-08T06:58:30.007Z,2.15
2022-11-08T07:00:57.762Z,2.45
2022-11-08T07:03:25.518Z,2.33
2022-11-08T07:05:53.280Z,2.35
2022-11-08T07:08:23.983Z,2.70
2022-11-08T07:10:53.437Z,2.30
2022-11-08T07:13:21.676Z,2.58
2022-11-08T07:15:49.877Z,2.47
2022-11-08T07:18:19.525Z,2.50
2022-11-08T07:20:48.334Z,2.60
2022-11-08T07:23:16.143Z,2.58
2022-11-08T07:25:44.004Z,2.60
2022-11-08T07:28:17.594Z,2.60
2022-11-08T07:30:46.253Z,2.33
2022-11-08T07:33:14.348Z,2.50
2022-11-08T07:35:42.632Z,2.75
2022-11-08T07:38:10.339Z,2.38
2022-11-08T07:40:38.102Z,2.80
2022-11-08T07:43:11.883Z,2.83
2022-11-08T07:45:42.275Z,2.72
2022-11-08T07:48:13.135Z,2.70
2022-11-08T07:50:41.944Z,3.00
2022-11-08T07:53:10.066Z,2.38
2022-11-08T07:55:38.885Z,3.00
2022-11-08T07:58:07.549Z,2.50
2022-11-08T08:00:37.243Z,2.45
2022-11-08T08:03:08.293Z,2.28
2022-11-08T08:05:38.171Z,2.40
2022-11-08T08:08:06.690Z,2.78
2022-11-08T08:10:35.641Z,2.00
2022-11-08T08:13:03.981Z,2.15
2022-11-08T08:15:31.816Z,2.60
2022-11-08T08:18:02.311Z,2.30
2022-11-08T08:20:32.538Z,2.50
2022-11-08T08:23:01.046Z,2.38
2022-11-08T08:25:31.054Z,2.20
2022-11-08T08:28:01.883Z,2.25
2022-11-08T08:30:31.672Z,2.00
2022-11-08T08:33:26.822Z,2.22
2022-11-08T08:35:54.706Z,2.20
2022-11-08T08:38:22.476Z,2.15
2022-11-08T08:40:51.022Z,2.22
2022-11-08T08:43:19.106Z,2.30
2022-11-08T08:45:47.090Z,2.25
2022-11-08T08:48:14.815Z,1.98
2022-11-08T08:50:42.946Z,2.00
2022-11-08T08:53:12.113Z,2.60
2022-11-08T08:55:41.673Z,2.15
2022-11-08T08:58:10.823Z,2.10
2022-11-08T09:03:26.572Z,2.17
2022-11-08T09:05:54.427Z,2.20
2022-11-08T09:08:24.696Z,2.13
2022-11-08T09:10:55.009Z,2.22
2022-11-08T09:13:23.491Z,2.25
2022-11-08T09:15:51.224Z,2.03
2022-11-08T09:18:19.148Z,2.30
2022-11-08T09:20:47.574Z,2.10
2022-11-08T09:23:17.925Z,2.35
2022-11-08T09:25:47.424Z,2.10
2022-11-08T09:28:15.161Z,2.40
2022-11-08T09:30:42.947Z,2.08
2022-11-08T09:33:10.773Z,2.40
2022-11-08T09:35:38.552Z,2.60
2022-11-08T09:38:07.435Z,2.00
2022-11-08T09:40:40.855Z,2.00
2022-11-08T09:43:26.811Z,2.55
2022-11-08T09:45:57.369Z,2.00
2022-11-08T09:48:31.078Z,2.10
2022-11-08T09:51:05.018Z,2.13
2022-11-08T09:53:38.912Z,2.08
2022-11-08T09:56:14.472Z,2.08
2022-11-08T09:58:51.372Z,2.00
2022-11-08T10:01:23.265Z,1.88
2022-11-08T10:03:56.498Z,2.13
2022-11-08T10:06:51.967Z,2.00
2022-11-08T10:09:30.805Z,2.10
2022-11-08T10:12:08.457Z,2.30
2022-11-08T10:14:55.956Z,2.20
2022-11-08T10:17:36.619Z,2.20
2022-11-08T10:20:14.057Z,1.90
2022-11-08T10:22:50.278Z,1.98
2022-11-08T10:25:34.002Z,2.00
2022-11-08T10:28:04.446Z,2.13
2022-11-08T10:30:36.400Z,2.33
2022-11-08T10:33:17.140Z,2.30
2022-11-08T10:35:49.272Z,2.00
2022-11-08T10:38:20.667Z,2.03
2022-11-08T10:40:58.853Z,1.80
2022-11-08T10:43:33.926Z,1.90
2022-11-08T10:46:03.200Z,2.00
2022-11-08T10:48:35.332Z,2.10
2022-11-08T10:51:03.050Z,1.75
2022-11-08T10:53:32.489Z,1.90
2022-11-08T10:56:01.868Z,1.85
2022-11-08T10:58:32.352Z,2.15
2022-11-08T11:01:04.670Z,2.10
2022-11-08T11:03:32.820Z,2.00
2022-11-08T11:06:02.617Z,2.38
2022-11-08T11:08:30.558Z,2.17
2022-11-08T11:11:23.180Z,2.20
2022-11-08T11:14:07.741Z,2.00
2022-11-08T11:16:38.442Z,2.00
2022-11-08T11:19:07.456Z,1.98
2022-11-08T11:21:38.018Z,1.90
2022-11-08T11:24:10.954Z,2.10
2022-11-08T11:26:43.987Z,2.22
2022-11-08T11:29:24.841Z,1.92
2022-11-08T11:31:55.359Z,1.95
2022-11-08T11:34:49.303Z,1.95
2022-11-08T11:37:23.301Z,2.30
2022-11-08T11:39:58.825Z,2.20
2022-11-08T11:42:45.657Z,1.95
2022-11-08T11:45:18.593Z,2.13
2022-11-08T11:47:53.092Z,2.00
2022-11-08T11:50:33.844Z,2.30
2022-11-08T11:53:04.797Z,2.20
2022-11-08T11:55:48.036Z,2.13
2022-11-08T11:58:32.985Z,1.80
2022-11-08T12:01:14.079Z,2.00
2022-11-08T12:04:02.727Z,2.03
2022-11-08T12:06:44.739Z,2.05
2022-11-08T12:09:35.831Z,1.90
2022-11-08T12:12:22.863Z,1.92
2022-11-08T12:15:01.318Z,1.95
2022-11-08T12:18:41.620Z,1.98
2022-11-08T12:21:14.846Z,2.00
2022-11-08T12:24:02.684Z,1.90
2022-11-08T12:26:38.961Z,1.80
2022-11-08T12:29:19.805Z,1.85
2022-11-08T12:32:13.182Z,2.00
2022-11-08T12:34:52.787Z,2.10
2022-11-08T12:37:33.803Z,2.13
2022-11-08T12:40:05.349Z,1.80
2022-11-08T12:42:52.134Z,1.73
2022-11-08T12:45:38.565Z,2.10
2022-11-08T12:48:17.815Z,1.83
2022-11-08T12:50:58.907Z,2.20
2022-11-08T12:53:54.652Z,2.03
2022-11-08T12:56:26.024Z,1.80
2022-11-08T12:58:55.475Z,1.75
2022-11-08T13:01:24.465Z,2.30
2022-11-08T13:04:18.789Z,2.13
2022-11-08T13:06:52.498Z,2.20
2022-11-08T13:09:30.928Z,1.80
2022-11-08T13:12:11.793Z,2.08
2022-11-08T13:14:41.523Z,1.90
2022-11-08T13:17:27.864Z,1.92
2022-11-08T13:20:03.674Z,1.92
2022-11-08T13:22:47.724Z,1.80
2022-11-08T13:25:38.195Z,1.77
2022-11-08T13:28:38.283Z,2.40
2022-11-08T13:31:43.011Z,1.92
2022-11-08T13:34:27.652Z,1.90
2022-11-08T13:37:25.184Z,2.10
2022-11-08T13:40:10.445Z,2.10
2022-11-08T13:42:56.220Z,2.17
2022-11-08T13:45:30.371Z,1.70
2022-11-08T13:48:00.940Z,1.70
2022-11-08T13:50:52.696Z,2.03
2022-11-08T13:53:57.754Z,2.20
2022-11-08T13:56:45.623Z,1.95
2022-11-08T13:59:50.290Z,1.73
2022-11-08T14:02:36.174Z,1.92
2022-11-08T14:05:26.836Z,2.05
2022-11-08T14:08:17.996Z,1.83
2022-11-08T14:11:25.071Z,2.13
2022-11-08T14:14:18.989Z,2.10
2022-11-08T14:17:01.111Z,1.90
2022-11-08T14:19:33.714Z,2.13
2022-11-08T14:22:02.195Z,2.25
2022-11-08T14:24:34.058Z,1.90
2022-11-08T14:27:01.818Z,2.05
2022-11-08T14:29:29.759Z,1.92
2022-11-08T14:32:06.335Z,2.10
2022-11-08T14:34:37.480Z,1.65
2022-11-08T14:37:14.140Z,2.00
2022-11-08T14:39:47.836Z,2.30
2022-11-08T14:42:23.291Z,1.90
2022-11-08T14:44:53.954Z,2.00
2022-11-08T14:47:25.439Z,2.00
2022-11-08T14:49:54.576Z,2.00
2022-11-08T14:52:25.725Z,2.08
2022-11-08T14:55:02.512Z,1.67
2022-11-08T14:57:32.266Z,2.10
2022-11-08T15:00:03.388Z,1.92
2022-11-08T15:02:31.333Z,1.67
2022-11-08T15:05:00.491Z,1.85
2022-11-08T15:07:28.536Z,1.95
2022-11-08T15:09:56.535Z,2.08
2022-11-08T15:12:26.015Z,2.00
2022-11-08T15:14:58.557Z,2.08
2022-11-08T15:17:35.665Z,1.83
2022-11-08T15:20:21.204Z,1.98
2022-11-08T15:22:54.084Z,2.10
2022-11-08T15:25:29.726Z,1.83
2022-11-08T15:27:59.074Z,2.10
2022-11-08T15:30:38.135Z,2.13
2022-11-08T15:33:06.448Z,2.00
2022-11-08T15:35:37.555Z,2.00
2022-11-08T15:38:07.089Z,2.00
2022-11-08T15:40:36.779Z,2.05
2022-11-08T15:43:05.000Z,2.05
2022-11-08T15:45:35.693Z,2.50
2022-11-08T15:48:20.892Z,2.55
2022-11-08T15:50:50.877Z,1.77
2022-11-08T15:53:18.969Z,2.22
2022-11-08T15:55:51.728Z,1.90
2022-11-08T15:58:26.824Z,2.08
2022-11-08T16:00:55.211Z,2.25
2022-11-08T16:03:23.128Z,2.30
2022-11-08T16:05:52.252Z,2.15
2022-11-08T16:08:21.208Z,2.15
2022-11-08T16:10:51.722Z,2.10
2022-11-08T16:13:22.622Z,1.95
2022-11-08T16:15:50.465Z,2.25
2022-11-08T16:18:19.971Z,2.15
2022-11-08T16:20:48.096Z,2.20
2022-11-08T16:23:17.987Z,2.08
2022-11-08T16:25:47.407Z,2.25
2022-11-08T16:28:21.268Z,2.30
2022-11-08T16:30:49.813Z,1.90
2022-11-08T16:33:20.927Z,2.10
2022-11-08T16:35:49.183Z,2.40
2022-11-08T16:38:24.706Z,2.22
2022-11-08T16:40:52.447Z,2.17
2022-11-08T16:43:20.197Z,2.00
2022-11-08T16:46:05.001Z,2.10
2022-11-08T16:48:35.981Z,2.10
2022-11-08T16:51:06.160Z,2.33
2022-11-08T16:53:37.639Z,2.30
2022-11-08T16:56:05.458Z,2.00
2022-11-08T16:58:33.190Z,2.25
2022-11-08T17:01:03.818Z,2.28
2022-11-08T17:03:33.968Z,2.13
2022-11-08T17:06:02.005Z,2.22
2022-11-08T17:08:29.753Z,2.30
2022-11-08T17:10:58.940Z,2.00
2022-11-08T17:13:26.669Z,2.33
2022-11-08T17:15:56.094Z,2.30
2022-11-08T17:18:23.868Z,2.33
2022-11-08T17:20:51.756Z,2.42
2022-11-08T17:23:19.502Z,2.40
2022-11-08T17:25:47.332Z,2.45
2022-11-08T17:28:16.735Z,2.30
2022-11-08T17:30:45.112Z,2.42
2022-11-08T17:33:14.157Z,2.35
2022-11-08T17:35:44.408Z,2.50
2022-11-08T17:38:12.550Z,2.47
2022-11-08T17:40:42.154Z,2.40
2022-11-08T17:43:10.044Z,2.30
2022-11-08T17:45:40.599Z,2.90
2022-11-08T17:48:08.341Z,2.40
2022-11-08T17:50:36.096Z,2.20
2022-11-08T17:53:04.097Z,2.80
2022-11-08T17:55:31.850Z,2.53
2022-11-08T17:58:00.600Z,2.50
2022-11-08T18:00:28.470Z,2.80
2022-11-08T18:03:00.361Z,2.60
2022-11-08T18:05:28.194Z,2.40
2022-11-08T18:07:56.515Z,2.50
2022-11-08T18:10:24.258Z,2.45
2022-11-08T18:12:52.063Z,2.47
2022-11-08T18:15:20.316Z,2.65
2022-11-08T18:17:48.108Z,2.40
2022-11-08T18:20:17.458Z,2.42
2022-11-08T18:22:45.354Z,2.55
2022-11-08T18:25:13.128Z,2.33
2022-11-08T18:27:40.828Z,2.10
2022-11-08T18:30:09.563Z,2.53
2022-11-08T18:32:37.359Z,2.40
2022-11-08T18:35:05.932Z,2.30
2022-11-08T18:37:34.999Z,2.38
2022-11-08T18:40:02.783Z,2.50
2022-11-08T18:42:30.620Z,2.60
2022-11-08T18:44:58.375Z,2.38
2022-11-08T18:47:28.369Z,2.30
2022-11-08T18:49:59.441Z,2.65
2022-11-08T18:54:56.163Z,2.20
2022-11-08T18:57:24.194Z,2.42
2022-11-08T18:59:51.970Z,2.40
2022-11-08T19:02:20.452Z,2.50
2022-11-08T19:04:48.311Z,2.40
2022-11-08T19:07:16.103Z,2.30
2022-11-08T19:09:43.881Z,2.65
2022-11-08T19:12:13.033Z,2.97
2022-11-08T19:14:40.740Z,2.78
2022-11-08T19:17:09.179Z,2.42
2022-11-08T19:19:37.940Z,2.78
2022-11-08T19:22:05.684Z,2.80
2022-11-08T19:24:33.425Z,2.60
2022-11-08T19:27:01.206Z,3.35
2022-11-08T19:29:30.351Z,2.90
2022-11-08T19:31:58.320Z,2.60
2022-11-08T19:34:26.079Z,2.53
2022-11-08T19:36:56.028Z,2.83
2022-11-08T19:39:24.490Z,3.03
2022-11-08T19:41:52.406Z,2.75
2022-11-08T19:44:20.600Z,2.40
2022-11-08T19:46:49.759Z,2.80
2022-11-08T19:49:17.499Z,3.22
2022-11-08T19:51:45.247Z,2.65
2022-11-08T19:54:14.559Z,2.58
2022-11-08T19:59:30.155Z,2.70
2022-11-08T20:01:59.924Z,2.85
2022-11-08T20:04:27.904Z,2.65
2022-11-08T20:06:57.092Z,2.67
2022-11-08T20:09:30.293Z,2.70
2022-11-08T20:11:58.643Z,2.50
2022-11-08T20:14:26.492Z,2.70
2022-11-08T20:16:54.442Z,2.75
2022-11-08T20:19:23.594Z,3.13
2022-11-08T20:21:55.670Z,2.42
2022-11-08T20:24:23.598Z,2.70
2022-11-08T20:26:51.369Z,2.80
2022-11-08T20:29:19.743Z,2.75
2022-11-08T20:31:48.128Z,2.50
2022-11-08T20:34:15.899Z,3.03
2022-11-08T20:36:45.059Z,2.67
2022-11-08T20:39:14.028Z,2.85
2022-11-08T20:41:42.047Z,2.67
2022-11-08T20:44:10.882Z,2.47
2022-11-08T20:46:39.515Z,2.92
2022-11-08T20:49:07.824Z,2.70
2022-11-08T20:51:36.166Z,3.15
2022-11-08T20:54:05.349Z,3.00
2022-11-08T20:56:33.105Z,2.90
2022-11-08T20:59:00.885Z,3.08
2022-11-08T21:01:30.635Z,2.78
2022-11-08T21:03:58.544Z,2.70
2022-11-08T21:06:28.111Z,3.00
2022-11-08T21:09:04.773Z,2.75
2022-11-08T21:11:40.866Z,2.30
2022-11-08T21:14:08.716Z,2.63
2022-11-08T21:17:06.627Z,2.90
2022-11-08T21:19:26.418Z,2.70
2022-11-08T21:22:14.222Z,3.15
2022-11-08T21:24:42.379Z,3.00
2022-11-08T21:27:12.188Z,2.88
2022-11-08T21:29:40.528Z,2.75
2022-11-08T21:32:08.794Z,3.15
2022-11-08T21:34:36.574Z,2.83
2022-11-08T21:37:04.433Z,2.72
2022-11-08T21:39:32.199Z,3.20
2022-11-08T21:42:00.016Z,2.70
2022-11-08T21:44:29.170Z,3.08
2022-11-08T21:46:56.936Z,3.00
2022-11-08T21:49:24.996Z,3.10
2022-11-08T21:51:52.768Z,2.85
2022-11-08T21:54:20.562Z,3.17
2022-11-08T21:56:48.347Z,2.88
2022-11-08T21:59:16.181Z,2.78
2022-11-08T22:01:45.347Z,2.80
2022-11-08T22:04:13.158Z,3.20
2022-11-08T22:06:46.421Z,2.92
2022-11-08T22:09:15.341Z,2.92
2022-11-08T22:11:43.124Z,3.25
2022-11-08T22:14:10.924Z,2.70
2022-11-08T22:16:38.780Z,2.78
2022-11-08T22:19:08.454Z,2.78
2022-11-08T22:21:40.154Z,2.92
2022-11-08T22:24:10.539Z,2.67
2022-11-08T22:26:38.332Z,3.00
2022-11-08T22:29:06.445Z,2.80
2022-11-08T22:31:34.509Z,2.80
2022-11-08T22:34:02.657Z,2.70
2022-11-08T22:36:31.809Z,3.08
2022-11-08T22:38:59.802Z,2.75
2022-11-08T22:41:28.223Z,3.65
2022-11-08T22:43:56.280Z,2.80
2022-11-08T22:46:24.166Z,3.10
2022-11-08T22:48:52.119Z,2.60
2022-11-08T22:51:19.953Z,2.78
2022-11-08T22:53:49.104Z,2.80
2022-11-08T22:56:16.934Z,2.72
2022-11-08T22:58:44.721Z,2.70
2022-11-08T23:01:14.443Z,2.88
2022-11-08T23:03:45.557Z,2.97
2022-11-08T23:08:41.436Z,2.72
2022-11-08T23:11:28.386Z,2.63
2022-11-08T23:14:13.733Z,3.30
2022-11-08T23:16:44.145Z,2.45
2022-11-08T23:19:32.467Z,2.58
2022-11-08T23:22:18.468Z,2.70
2022-11-08T23:24:46.509Z,2.38
2022-11-08T23:27:34.828Z,3.00
2022-11-08T23:30:20.335Z,2.50
2022-11-08T23:32:49.909Z,2.78
2022-11-08T23:35:18.535Z,2.63
2022-11-08T23:37:46.436Z,2.40
2022-11-08T23:40:34.438Z,2.78
2022-11-08T23:43:30.268Z,2.63
2022-11-08T23:45:58.768Z,2.47
2022-11-08T23:48:28.026Z,2.30
2022-11-08T23:50:56.248Z,2.70
2022-11-08T23:53:25.892Z,2.15
2022-11-08T23:55:54.058Z,2.90
2022-11-08T23:58:23.483Z,2.40
